aviador You're here:

OIKQ Decoded Metar

GHESHM I. in IRAN
Report Time2018-06-25 06:00:00
UTC Time2018-06-25 06:13:17
Flight Rules ifr IFR
Wind250° at 18 kt
W.Decomp.*RWY 23: 16.9 kt HW 6.2 kt RCW
W.Rank250° ranks 16
Current wind is above 250° avg. (10.7)
Visibility4000 m
Phenomena:Mist
Clouds:N/A
Expected CloudBase > 800 ft AGL from Temp-Dew spread
CeilingNone
Temp32°C (ISA +17)
Dew Point30°C (89% RH)
Heat Index48.5°C
QNH0999 hPa
Density Alt3,015 ft
Elevation39 ft
Report Wrong Elevation
Raw Report
METAR OIKQ 250600Z 25018KT 4000 BR NSC 32/30 Q0999=

Extra information for OIKQ:More info

Metar Taf Metar & Taf Last 4 Metars F.Rules Stats Wind Profile Meteogram Temp Stats Airport Information Weather charts Add Link Nearby VenuesMetar ALERT Operation Metar Decoded Social comments